• Join FlightAware (Why Join?)
  • Login
  • US Flag 
10:14PM EDT


 

Airport Tracker/Info


-or-


 

Live Flight TrackerFlight Track Log ✈ N8087R ✈ 14-Jun-2013 ✈ KECP - KAUO

Flight Track Log - Related Links

Times and Time Zones

All times are in EDT time to prevent confusion due to time zone crossing. See the N8087R flight status page for this flight to view local times or setup timezone preferences in your user account.

Time Position Orientation Groundspeed Altitude Reporting Facility
EDT Latitude Longitude Course Direction KTS MPH feet Rate Location/Type
07:29PM 30.6135 -85.7525 North  Level FlightAware Approximate
07:29PM 30.5342 -85.7892 North 112 129 6,300  Level Jacksonville Center
07:30PM 30.6508 -85.7456 12° North  Level FlightAware Approximate
07:30PM 30.5719 -85.7806 11° North 111 128 7,100  Level Jacksonville Center
07:31PM 30.6878 -85.7364 12° North  Level FlightAware Approximate
07:31PM 30.6119 -85.7722 10° North 160 184 7,100  Level Jacksonville Center
07:32PM 30.7271 -85.7317 North  Level FlightAware Approximate
07:32PM 30.6561 -85.7517 22° Northeast 174 200 7,100  Level Jacksonville Center
07:33PM 30.7661 -85.7256 North  Level FlightAware Approximate
07:33PM 30.7044 -85.7364 15° North 163 188 7,100  Level Jacksonville Center
07:34PM 30.8051 -85.7195 North  Level FlightAware Approximate
07:34PM 30.7447 -85.7181 21° North 164 189 7,100  Level Jacksonville Center
07:35PM 30.7886 -85.7122 North 161 185 7,100 -60 Level Jacksonville Center
07:36PM 30.8264 -85.7061 North 156 180 7,000  Descending Jacksonville Center
07:37PM 30.8681 -85.7047 North 156 180 7,100  Climbing Jacksonville Center
07:38PM 30.9142 -85.7014 North 156 180 7,100  Level Jacksonville Center
07:39PM 30.9603 -85.6956 North 159 183 7,100  Level Jacksonville Center
07:40PM 31.0081 -85.6969 359° North 162 186 7,100 -60 Level Jacksonville Center
07:41PM 31.0500 -85.6883 10° North 162 186 7,000  Descending Jacksonville Center
07:42PM 31.0939 -85.6850 North 164 189 7,100  Climbing Jacksonville Center
07:43PM 31.1358 -85.6764 10° North 166 191 7,100  Level Jacksonville Center
07:44PM 31.1756 -85.6728 North 167 192 7,100 -60 Level Jacksonville Center
07:44PM 31.2175 -85.6667 North 167 192 7,000  Descending Jacksonville Center
07:45PM 31.2636 -85.6608 North 163 188 7,100  Climbing Jacksonville Center
07:46PM 31.3078 -85.6525 North 162 186 7,000  Descending Jacksonville Center
07:47PM 31.3494 -85.6464 North 161 185 7,100  Climbing Jacksonville Center
07:48PM 31.3978 -85.6381 North 163 188 7,100  Level Jacksonville Center
07:49PM 31.4394 -85.6344 North 160 184 7,100  Level Jacksonville Center
07:50PM 31.4836 -85.6258 North 159 183 7,100  Level Jacksonville Center
07:51PM 31.5297 -85.6175 North 159 183 7,100  Level Jacksonville Center
07:52PM 31.5758 -85.6117 North 157 181 7,100  Level Jacksonville Center
07:54PM 31.6219 -85.6031 North 159 183 7,100  Level Jacksonville Center
07:55PM 31.6639 -85.5969 North 159 183 7,100  Level Jacksonville Center
07:56PM 31.7100 -85.5886 North 158 182 7,100  Level Jacksonville Center
07:57PM 31.7539 -85.5825 North 158 182 7,100  Level Jacksonville Center
07:58PM 31.8333 -85.5667 10° North 157 181 7,100  Level Atlanta TRACON
07:59PM 31.8833 -85.5667 360° North 159 183 7,100  Level Atlanta TRACON
08:00PM 31.9167 -85.5500 23° Northeast 157 181 7,100  Level Atlanta TRACON
08:01PM 31.9667 -85.5500 360° North 161 185 7,100 -180 Level Atlanta TRACON
08:02PM 32.0000 -85.5500 360° North 163 188 6,800 -420 Descending Atlanta TRACON
08:03PM 32.0500 -85.5333 16° North 172 198 6,300 -480 Descending Atlanta TRACON
08:04PM 32.1000 -85.5333 360° North 172 198 5,900 -480 Descending Atlanta TRACON
08:05PM 32.1333 -85.5167 23° Northeast 176 203 5,500 -480 Descending Atlanta TRACON
08:06PM 32.1833 -85.5167 360° North 173 199 5,000 -480 Descending Atlanta TRACON
08:07PM 32.2333 -85.5000 16° North 174 200 4,600 -480 Descending Atlanta TRACON
08:08PM 32.2833 -85.5000 360° North 171 197 4,100 -420 Descending Atlanta TRACON
08:09PM 32.3333 -85.4833 16° North 166 191 3,800 -300 Descending Atlanta TRACON